Map

Track Data

SID SEASON NUMBER BASIN SUBBASIN NAME ISO_TIME NATURE LAT LON WMO_WIND WMO_PRES WMO_AGENCY TRACK_TYPE DIST2LAND LANDFALL IFLAG USA_AGENCY USA_ATCF_ID USA_LAT USA_LON USA_RECORD USA_STATUS USA_WIND USA_PRES USA_SSHS USA_R34_NE USA_R34_SE USA_R34_SW USA_R34_NW USA_R50_NE USA_R50_SE USA_R50_SW USA_R50_NW USA_R64_NE USA_R64_SE USA_R64_SW USA_R64_NW USA_POCI USA_ROCI USA_RMW USA_EYE TOKYO_LAT TOKYO_LON TOKYO_GRADE TOKYO_WIND TOKYO_PRES TOKYO_R50_DIR TOKYO_R50_LONG TOKYO_R50_SHORT TOKYO_R30_DIR TOKYO_R30_LONG TOKYO_R30_SHORT TOKYO_LAND CMA_LAT CMA_LON CMA_CAT CMA_WIND CMA_PRES HKO_LAT HKO_LON HKO_CAT HKO_WIND HKO_PRES NEWDELHI_LAT NEWDELHI_LON NEWDELHI_GRADE NEWDELHI_WIND NEWDELHI_PRES NEWDELHI_CI NEWDELHI_DP NEWDELHI_POCI REUNION_LAT REUNION_LON REUNION_TYPE REUNION_WIND REUNION_PRES REUNION_TNUM REUNION_CI REUNION_RMW REUNION_R34_NE REUNION_R34_SE REUNION_R34_SW REUNION_R34_NW REUNION_R50_NE REUNION_R50_SE REUNION_R50_SW REUNION_R50_NW REUNION_R64_NE REUNION_R64_SE REUNION_R64_SW REUNION_R64_NW BOM_LAT BOM_LON BOM_TYPE BOM_WIND BOM_PRES BOM_TNUM BOM_CI BOM_RMW BOM_R34_NE BOM_R34_SE BOM_R34_SW BOM_R34_NW BOM_R50_NE BOM_R50_SE BOM_R50_SW BOM_R50_NW BOM_R64_NE BOM_R64_SE BOM_R64_SW BOM_R64_NW BOM_ROCI BOM_POCI BOM_EYE BOM_POS_METHOD BOM_PRES_METHOD NADI_LAT NADI_LON NADI_CAT NADI_WIND NADI_PRES WELLINGTON_LAT WELLINGTON_LON WELLINGTON_WIND WELLINGTON_PRES DS824_LAT DS824_LON DS824_STAGE DS824_WIND DS824_PRES TD9636_LAT TD9636_LON TD9636_STAGE TD9636_WIND TD9636_PRES TD9635_LAT TD9635_LON TD9635_WIND TD9635_PRES TD9635_ROCI NEUMANN_LAT NEUMANN_LON NEUMANN_CLASS NEUMANN_WIND NEUMANN_PRES MLC_LAT MLC_LON MLC_CLASS MLC_WIND MLC_PRES USA_GUST BOM_GUST BOM_GUST_PER REUNION_GUST REUNION_GUST_PER USA_SEAHGT USA_SEARAD_NE USA_SEARAD_SE USA_SEARAD_SW USA_SEARAD_NW STORM_SPEED STORM_DIR
1859162S04088 1859 12 SI MM NOT_NAMED 1859-06-11 06:00:00 NR -4.40000 87.6000 main 1203 1203 _____O________ -1 -4.40000 87.6000 99 9.90000 4 244
1859162S04088 1859 12 SI MM NOT_NAMED 1859-06-11 09:00:00 NR -4.48399 87.4328 main 1227 1227 _____P________ -1 -4.48399 87.4328 99 4 243
1859162S04088 1859 12 SI MM NOT_NAMED 1859-06-11 12:00:00 NR -4.57187 87.2624 main 1242 1242 _____P________ -1 -4.57187 87.2624 99 4 242
1859162S04088 1859 12 SI MM NOT_NAMED 1859-06-11 15:00:00 NR -4.66755 87.0858 main 1267 1267 _____P________ -1 -4.66755 87.0858 99 4 241
1859162S04088 1859 12 SI MM NOT_NAMED 1859-06-11 18:00:00 NR -4.77495 86.8999 main 1291 1291 _____P________ -1 -4.77495 86.8999 99 4 239
1859162S04088 1859 12 SI MM NOT_NAMED 1859-06-11 21:00:00 NR -4.89798 86.7015 main 1315 1315 _____P________ -1 -4.89798 86.7015 99 5 237
1859162S04088 1859 12 SI MM NOT_NAMED 1859-06-12 00:00:00 NR -5.04056 86.4875 main 1339 1339 _____P________ -1 -5.04056 86.4875 99 5 235
1859162S04088 1859 12 SI MM NOT_NAMED 1859-06-12 03:00:00 NR -5.20660 86.2547 main 1371 1371 _____P________ -1 -5.20660 86.2547 99 6 234
1859162S04088 1859 12 SI MM NOT_NAMED 1859-06-12 06:00:00 NR -5.40000 86.0000 main 1400 1396 _____O________ -1 -5.40000 86.0000 99 9.90000 7 232
1859162S04088 1859 12 SI MM NOT_NAMED 1859-06-12 09:00:00 NR -5.62329 85.7212 main 1407 1407 _____P________ -1 -5.62329 85.7212 99 7 231
1859162S04088 1859 12 SI MM NOT_NAMED 1859-06-12 12:00:00 NR -5.87353 85.4201 main 1425 1421 _____P________ -1 -5.87353 85.4201 99 8 230
1859162S04088 1859 12 SI MM NOT_NAMED 1859-06-12 15:00:00 NR -6.14640 85.0994 main 1434 1434 _____P________ -1 -6.14640 85.0994 99 9 229
1859162S04088 1859 12 SI MM NOT_NAMED 1859-06-12 18:00:00 NR -6.43760 84.7619 main 1455 1455 _____P________ -1 -6.43760 84.7619 99 9 229
1859162S04088 1859 12 SI MM NOT_NAMED 1859-06-12 21:00:00 NR -6.74284 84.4105 main 1473 1473 _____P________ -1 -6.74284 84.4105 99 9 229
1859162S04088 1859 12 SI MM NOT_NAMED 1859-06-13 00:00:00 NR -7.05783 84.0478 main 1504 1502 _____P________ -1 -7.05783 84.0478 99 10 229
1859162S04088 1859 12 SI MM NOT_NAMED 1859-06-13 03:00:00 NR -7.37829 83.6767 main 1529 1527 _____P________ -1 -7.37829 83.6767 99 10 229
1859162S04088 1859 12 SI MM NOT_NAMED 1859-06-13 06:00:00 NR -7.70000 83.3000 main 1553 1553 _____O________ -1 -7.70000 83.3000 99 9.90000 10 230
1859162S04088 1859 12 SI MM NOT_NAMED 1859-06-13 09:00:00 NR -8.02639 82.8993 main 1578 1578 _____P________ -1 -8.02639 82.8993 99 10 231
1859162S04088 1859 12 SI MM NOT_NAMED 1859-06-13 12:00:00 NR -8.35988 82.4861 main 1616 1614 _____P________ -1 -8.35988 82.4861 99 11 231
1859162S04088 1859 12 SI MM NOT_NAMED 1859-06-13 15:00:00 NR -8.69490 82.0685 main 1644 1643 _____P________ -1 -8.69490 82.0685 99 11 231
1859162S04088 1859 12 SI MM NOT_NAMED 1859-06-13 18:00:00 NR -9.02591 81.6545 main 1674 1673 _____P________ -1 -9.02591 81.6545 99 10 231
1859162S04088 1859 12 SI MM NOT_NAMED 1859-06-13 21:00:00 NR -9.34739 81.2524 main 1704 1704 _____P________ -1 -9.34739 81.2524 99 10 231
1859162S04088 1859 12 SI MM NOT_NAMED 1859-06-14 00:00:00 NR -9.65386 80.8704 main 1748 1748 _____P________ -1 -9.65386 80.8704 99 9 231
1859162S04088 1859 12 SI MM NOT_NAMED 1859-06-14 03:00:00 NR -9.93987 80.5168 main 1770 1770 _____P________ -1 -9.93987 80.5168 99 9 230
1859162S04088 1859 12 SI MM NOT_NAMED 1859-06-14 06:00:00 NR -10.2000 80.2000 main 1804 1804 _____O________ -1 -10.2000 80.2000 99 9.90000 8 230
1859162S04088 1859 12 SI MM NOT_NAMED 1859-06-14 09:00:00 NR -10.4304 79.9260 main 1828 1828 _____P________ -1 -10.4304 79.9260 99 7 229
1859162S04088 1859 12 SI MM NOT_NAMED 1859-06-14 12:00:00 NR -10.6336 79.6915 main 1851 1851 _____P________ -1 -10.6336 79.6915 99 6 228
1859162S04088 1859 12 SI MM NOT_NAMED 1859-06-14 15:00:00 NR -10.8135 79.4910 main 1875 1875 _____P________ -1 -10.8135 79.4910 99 5 227
1859162S04088 1859 12 SI MM NOT_NAMED 1859-06-14 18:00:00 NR -10.9740 79.3188 main 1899 1899 _____P________ -1 -10.9740 79.3188 99 4 226
1859162S04088 1859 12 SI MM NOT_NAMED 1859-06-14 21:00:00 NR -11.1190 79.1693 main 1911 1911 _____P________ -1 -11.1190 79.1693 99 4 225
1859162S04088 1859 12 SI MM NOT_NAMED 1859-06-15 00:00:00 NR -11.2524 79.0368 main 1935 1935 _____P________ -1 -11.2524 79.0368 99 4 224
1859162S04088 1859 12 SI MM NOT_NAMED 1859-06-15 03:00:00 NR -11.3782 78.9156 main 1947 1947 _____P________ -1 -11.3782 78.9156 99 3 223
1859162S04088 1859 12 SI MM NOT_NAMED 1859-06-15 06:00:00 NR -11.5000 78.8000 reunion main 1959 _____O________ -1 -11.5000 78.8000 99 9.90000 3 222

About IBTrACS Database

This database is a web-friendly format of International Best Track Archive for Climate Stewardship (IBTrACS), a global best track data archive curated by NOAA dating back to 1842.

Updated: 2021-12-01